sensor_id;sensor_type;location;lat;lon;timestamp;pressure;altitude;pressure_sealevel;temperature;humidity
62103;BME280;48077;48.104;11.702;2023-03-26T00:01:56;95031.94;;;5.39;81.00
62103;BME280;48077;48.104;11.702;2023-03-26T00:04:20;95061.91;;;5.64;81.21
62103;BME280;48077;48.104;11.702;2023-03-26T00:06:44;95062.28;;;5.68;80.68
62103;BME280;48077;48.104;11.702;2023-03-26T00:09:10;95054.31;;;5.75;80.20
62103;BME280;48077;48.104;11.702;2023-03-26T00:11:37;95032.38;;;5.67;79.77
62103;BME280;48077;48.104;11.702;2023-03-26T00:14:01;95043.72;;;5.81;79.60
62103;BME280;48077;48.104;11.702;2023-03-26T00:16:28;95051.97;;;5.92;79.13
62103;BME280;48077;48.104;11.702;2023-03-26T00:18:52;95051.38;;;5.96;79.27
62103;BME280;48077;48.104;11.702;2023-03-26T00:21:18;95046.28;;;5.95;79.30
62103;BME280;48077;48.104;11.702;2023-03-26T00:23:43;95046.28;;;5.95;79.05
62103;BME280;48077;48.104;11.702;2023-03-26T00:26:07;95026.63;;;5.77;79.19
62103;BME280;48077;48.104;11.702;2023-03-26T00:28:33;95041.81;;;5.88;79.22
62103;BME280;48077;48.104;11.702;2023-03-26T00:30:59;95048.97;;;5.88;79.00
62103;BME280;48077;48.104;11.702;2023-03-26T00:33:23;95045.13;;;5.84;78.99
62103;BME280;48077;48.104;11.702;2023-03-26T00:35:53;95053.00;;;5.91;78.39
62103;BME280;48077;48.104;11.702;2023-03-26T00:38:17;95032.94;;;5.76;78.91
62103;BME280;48077;48.104;11.702;2023-03-26T00:40:41;95052.63;;;5.87;78.90
62103;BME280;48077;48.104;11.702;2023-03-26T00:43:10;95034.94;;;5.81;79.02
62103;BME280;48077;48.104;11.702;2023-03-26T00:45:41;95030.47;;;5.81;79.15
62103;BME280;48077;48.104;11.702;2023-03-26T00:48:04;95012.06;;;5.61;79.54
62103;BME280;48077;48.104;11.702;2023-03-26T00:50:27;95022.81;;;5.66;79.63
62103;BME280;48077;48.104;11.702;2023-03-26T00:52:51;95033.19;;;5.68;79.70
62103;BME280;48077;48.104;11.702;2023-03-26T00:55:17;95027.75;;;5.63;79.60
62103;BME280;48077;48.104;11.702;2023-03-26T00:57:41;95040.31;;;5.67;80.04
62103;BME280;48077;48.104;11.702;2023-03-26T01:00:07;95030.75;;;5.66;79.81
62103;BME280;48077;48.104;11.702;2023-03-26T01:02:34;95015.97;;;5.59;80.03
62103;BME280;48077;48.104;11.702;2023-03-26T01:04:57;95018.66;;;5.52;80.42
62103;BME280;48077;48.104;11.702;2023-03-26T01:07:25;95003.03;;;5.44;79.98
62103;BME280;48077;48.104;11.702;2023-03-26T01:09:51;95020.66;;;5.57;80.41
62103;BME280;48077;48.104;11.702;2023-03-26T01:12:17;95022.09;;;5.53;80.19
62103;BME280;48077;48.104;11.702;2023-03-26T01:14:42;95004.47;;;5.40;80.75
62103;BME280;48077;48.104;11.702;2023-03-26T01:17:06;95005.53;;;5.32;80.99
62103;BME280;48077;48.104;11.702;2023-03-26T01:22:13;95030.28;;;5.44;81.38
62103;BME280;48077;48.104;11.702;2023-03-26T01:24:38;94988.91;;;5.18;81.39
62103;BME280;48077;48.104;11.702;2023-03-26T01:30:19;95005.56;;;5.25;81.65
62103;BME280;48077;48.104;11.702;2023-03-26T01:33:20;95025.03;;;5.38;81.41
62103;BME280;48077;48.104;11.702;2023-03-26T01:35:59;95022.75;;;5.41;81.24
62103;BME280;48077;48.104;11.702;2023-03-26T01:41:07;95005.13;;;5.28;81.87
62103;BME280;48077;48.104;11.702;2023-03-26T01:43:38;95014.47;;;5.31;81.94
62103;BME280;48077;48.104;11.702;2023-03-26T01:46:08;95008.81;;;5.27;82.46
62103;BME280;48077;48.104;11.702;2023-03-26T01:48:35;95004.97;;;5.23;83.03
62103;BME280;48077;48.104;11.702;2023-03-26T01:51:02;95004.38;;;5.21;83.03
62103;BME280;48077;48.104;11.702;2023-03-26T01:53:26;95009.06;;;5.19;82.86
62103;BME280;48077;48.104;11.702;2023-03-26T01:58:36;95002.97;;;5.19;83.13
62103;BME280;48077;48.104;11.702;2023-03-26T02:04:32;95005.41;;;5.14;84.10
62103;BME280;48077;48.104;11.702;2023-03-26T02:07:08;94968.91;;;4.91;84.14
62103;BME280;48077;48.104;11.702;2023-03-26T02:09:42;94965.84;;;4.94;83.79
62103;BME280;48077;48.104;11.702;2023-03-26T02:12:08;94970.75;;;4.90;84.34
62103;BME280;48077;48.104;11.702;2023-03-26T02:14:31;94996.31;;;5.03;84.54
62103;BME280;48077;48.104;11.702;2023-03-26T02:16:58;94987.19;;;4.99;85.13
62103;BME280;48077;48.104;11.702;2023-03-26T02:19:22;94978.66;;;4.97;85.12
62103;BME280;48077;48.104;11.702;2023-03-26T02:21:47;94984.94;;;4.96;85.46
62103;BME280;48077;48.104;11.702;2023-03-26T02:24:16;94973.00;;;4.86;85.42
62103;BME280;48077;48.104;11.702;2023-03-26T02:26:40;94981.69;;;4.94;85.60
62103;BME280;48077;48.104;11.702;2023-03-26T02:29:04;94969.56;;;4.86;85.56
62103;BME280;48077;48.104;11.702;2023-03-26T02:31:27;94976.41;;;4.94;85.99
62103;BME280;48077;48.104;11.702;2023-03-26T02:33:53;94951.06;;;4.86;86.19
62103;BME280;48077;48.104;11.702;2023-03-26T02:36:18;94969.91;;;4.96;85.80
62103;BME280;48077;48.104;11.702;2023-03-26T02:38:44;94952.66;;;4.87;85.95
62103;BME280;48077;48.104;11.702;2023-03-26T02:41:07;94947.81;;;4.84;85.80
62103;BME280;48077;48.104;11.702;2023-03-26T02:43:30;94945.56;;;4.88;85.76
62103;BME280;48077;48.104;11.702;2023-03-26T02:45:54;94963.19;;;5.00;85.91
62103;BME280;48077;48.104;11.702;2023-03-26T02:48:17;94952.41;;;4.95;85.62
62103;BME280;48077;48.104;11.702;2023-03-26T02:50:43;94962.34;;;5.00;86.12
62103;BME280;48077;48.104;11.702;2023-03-26T02:53:07;94951.63;;;4.95;85.96
62103;BME280;48077;48.104;11.702;2023-03-26T02:55:30;94953.03;;;4.97;85.82
62103;BME280;48077;48.104;11.702;2023-03-26T02:57:54;94932.56;;;4.86;86.36
62103;BME280;48077;48.104;11.702;2023-03-26T03:00:17;94934.59;;;4.84;86.39
62103;BME280;48077;48.104;11.702;2023-03-26T03:02:44;94930.13;;;4.84;86.69
62103;BME280;48077;48.104;11.702;2023-03-26T03:05:09;94942.28;;;4.92;87.05
62103;BME280;48077;48.104;11.702;2023-03-26T03:07:33;94934.34;;;4.92;87.24
62103;BME280;48077;48.104;11.702;2023-03-26T03:09:59;94930.31;;;4.90;86.92
62103;BME280;48077;48.104;11.702;2023-03-26T03:12:24;94910.81;;;4.84;87.33
62103;BME280;48077;48.104;11.702;2023-03-26T03:14:48;94915.25;;;4.90;87.44
62103;BME280;48077;48.104;11.702;2023-03-26T03:17:11;94915.06;;;4.92;86.92
62103;BME280;48077;48.104;11.702;2023-03-26T03:19:34;94898.44;;;4.78;87.60
62103;BME280;48077;48.104;11.702;2023-03-26T03:21:59;94900.66;;;4.81;87.25
62103;BME280;48077;48.104;11.702;2023-03-26T03:24:23;94914.22;;;4.91;87.51
62103;BME280;48077;48.104;11.702;2023-03-26T03:26:46;94896.56;;;4.85;87.57
62103;BME280;48077;48.104;11.702;2023-03-26T03:29:10;94901.44;;;4.88;88.07
62103;BME280;48077;48.104;11.702;2023-03-26T03:31:35;94885.88;;;4.73;87.94
62103;BME280;48077;48.104;11.702;2023-03-26T03:33:58;94899.22;;;4.85;87.80
62103;BME280;48077;48.104;11.702;2023-03-26T03:36:22;94891.94;;;4.80;88.21
62103;BME280;48077;48.104;11.702;2023-03-26T03:38:45;94889.72;;;4.77;88.23
62103;BME280;48077;48.104;11.702;2023-03-26T03:41:09;94882.03;;;4.69;88.36
62103;BME280;48077;48.104;11.702;2023-03-26T03:43:33;94876.38;;;4.59;88.62
62103;BME280;48077;48.104;11.702;2023-03-26T03:45:57;94895.00;;;4.71;89.11
62103;BME280;48077;48.104;11.702;2023-03-26T03:48:21;94896.84;;;4.70;89.63
62103;BME280;48077;48.104;11.702;2023-03-26T03:50:44;94890.56;;;4.64;89.69
62103;BME280;48077;48.104;11.702;2023-03-26T03:53:07;94882.63;;;4.64;90.06
62103;BME280;48077;48.104;11.702;2023-03-26T03:55:31;94894.41;;;4.69;90.01
62103;BME280;48077;48.104;11.702;2023-03-26T03:57:54;94889.13;;;4.69;89.72
62103;BME280;48077;48.104;11.702;2023-03-26T04:00:19;94880.63;;;4.60;90.31
62103;BME280;48077;48.104;11.702;2023-03-26T04:02:43;94885.28;;;4.64;90.54
62103;BME280;48077;48.104;11.702;2023-03-26T04:05:08;94890.81;;;4.63;90.70
62103;BME280;48077;48.104;11.702;2023-03-26T04:07:33;94876.44;;;4.52;90.57
62103;BME280;48077;48.104;11.702;2023-03-26T04:09:58;94866.69;;;4.46;90.61
62103;BME280;48077;48.104;11.702;2023-03-26T04:12:28;94856.13;;;4.39;90.88
62103;BME280;48077;48.104;11.702;2023-03-26T04:14:51;94877.41;;;4.58;90.85
62103;BME280;48077;48.104;11.702;2023-03-26T04:17:15;94873.75;;;4.59;90.98
62103;BME280;48077;48.104;11.702;2023-03-26T04:19:39;94869.47;;;4.58;91.81
62103;BME280;48077;48.104;11.702;2023-03-26T04:22:02;94860.97;;;4.49;91.61
62103;BME280;48077;48.104;11.702;2023-03-26T04:24:25;94868.72;;;4.51;91.82
62103;BME280;48077;48.104;11.702;2023-03-26T04:26:49;94865.03;;;4.52;92.01
62103;BME280;48077;48.104;11.702;2023-03-26T04:29:13;94858.94;;;4.51;92.03
62103;BME280;48077;48.104;11.702;2023-03-26T04:31:40;94841.28;;;4.45;91.87
62103;BME280;48077;48.104;11.702;2023-03-26T04:34:07;94846.19;;;4.48;92.47
62103;BME280;48077;48.104;11.702;2023-03-26T04:36:36;94830.38;;;4.35;92.94
62103;BME280;48077;48.104;11.702;2023-03-26T04:39:02;94852.25;;;4.49;92.91
62103;BME280;48077;48.104;11.702;2023-03-26T04:41:27;94845.78;;;4.44;92.76
62103;BME280;48077;48.104;11.702;2023-03-26T04:43:52;94842.50;;;4.49;92.61
62103;BME280;48077;48.104;11.702;2023-03-26T04:46:16;94846.34;;;4.53;92.54
62103;BME280;48077;48.104;11.702;2023-03-26T04:48:46;94825.88;;;4.42;92.58
62103;BME280;48077;48.104;11.702;2023-03-26T04:51:12;94840.47;;;4.51;93.09
62103;BME280;48077;48.104;11.702;2023-03-26T04:53:41;94819.41;;;4.38;93.21
62103;BME280;48077;48.104;11.702;2023-03-26T04:56:14;94820.81;;;4.40;93.51
62103;BME280;48077;48.104;11.702;2023-03-26T04:58:45;94830.69;;;4.52;93.66
62103;BME280;48077;48.104;11.702;2023-03-26T05:01:10;94815.09;;;4.43;93.72
62103;BME280;48077;48.104;11.702;2023-03-26T05:03:33;94814.84;;;4.52;94.32
62103;BME280;48077;48.104;11.702;2023-03-26T05:05:58;94809.81;;;4.50;94.14
62103;BME280;48077;48.104;11.702;2023-03-26T05:08:22;94819.88;;;4.60;93.99
62103;BME280;48077;48.104;11.702;2023-03-26T05:10:45;94807.13;;;4.57;94.09
62103;BME280;48077;48.104;11.702;2023-03-26T05:13:09;94795.16;;;4.47;94.40
62103;BME280;48077;48.104;11.702;2023-03-26T05:15:32;94785.84;;;4.45;93.82
62103;BME280;48077;48.104;11.702;2023-03-26T05:17:55;94772.88;;;4.37;94.52
62103;BME280;48077;48.104;11.702;2023-03-26T05:20:22;94797.53;;;4.62;95.06
62103;BME280;48077;48.104;11.702;2023-03-26T05:22:47;94793.66;;;4.65;94.58
62103;BME280;48077;48.104;11.702;2023-03-26T05:25:11;94756.59;;;4.46;94.46
62103;BME280;48077;48.104;11.702;2023-03-26T05:27:34;94777.03;;;4.58;94.99
62103;BME280;48077;48.104;11.702;2023-03-26T05:30:01;94778.66;;;4.59;95.09
62103;BME280;48077;48.104;11.702;2023-03-26T05:32:25;94772.16;;;4.61;94.96
62103;BME280;48077;48.104;11.702;2023-03-26T05:34:50;94772.75;;;4.63;94.77
62103;BME280;48077;48.104;11.702;2023-03-26T05:37:13;94788.72;;;4.75;94.77
62103;BME280;48077;48.104;11.702;2023-03-26T05:39:39;94760.97;;;4.59;95.31
62103;BME280;48077;48.104;11.702;2023-03-26T05:42:03;94794.97;;;4.81;95.29
62103;BME280;48077;48.104;11.702;2023-03-26T05:44:26;94778.53;;;4.79;94.90
62103;BME280;48077;48.104;11.702;2023-03-26T05:46:50;94779.13;;;4.81;95.38
62103;BME280;48077;48.104;11.702;2023-03-26T05:49:13;94774.88;;;4.80;94.97
62103;BME280;48077;48.104;11.702;2023-03-26T05:51:36;94779.44;;;4.91;95.54
62103;BME280;48077;48.104;11.702;2023-03-26T05:54:03;94757.19;;;4.80;94.94
62103;BME280;48077;48.104;11.702;2023-03-26T05:56:29;94758.69;;;4.95;94.26
62103;BME280;48077;48.104;11.702;2023-03-26T05:58:54;94760.22;;;5.09;93.87
62103;BME280;48077;48.104;11.702;2023-03-26T06:01:18;94725.94;;;4.96;94.19
62103;BME280;48077;48.104;11.702;2023-03-26T06:03:43;94735.63;;;5.09;94.19
62103;BME280;48077;48.104;11.702;2023-03-26T06:06:08;94738.13;;;5.22;94.11
62103;BME280;48077;48.104;11.702;2023-03-26T06:08:32;94733.00;;;5.27;93.53
62103;BME280;48077;48.104;11.702;2023-03-26T06:11:03;94737.66;;;5.32;93.08
62103;BME280;48077;48.104;11.702;2023-03-26T06:13:29;94724.44;;;5.32;93.01
62103;BME280;48077;48.104;11.702;2023-03-26T06:15:53;94734.47;;;5.41;92.52
62103;BME280;48077;48.104;11.702;2023-03-26T06:18:16;94718.47;;;5.36;92.47
62103;BME280;48077;48.104;11.702;2023-03-26T06:20:41;94709.22;;;5.45;92.25
62103;BME280;48077;48.104;11.702;2023-03-26T06:23:04;94722.31;;;5.59;92.20
62103;BME280;48077;48.104;11.702;2023-03-26T06:25:27;94718.63;;;5.60;92.35
62103;BME280;48077;48.104;11.702;2023-03-26T06:27:53;94726.50;;;5.66;91.42
62103;BME280;48077;48.104;11.702;2023-03-26T06:30:16;94724.44;;;5.68;91.12
62103;BME280;48077;48.104;11.702;2023-03-26T06:32:42;94715.69;;;5.68;91.46
62103;BME280;48077;48.104;11.702;2023-03-26T06:35:06;94695.78;;;5.65;91.46
62103;BME280;48077;48.104;11.702;2023-03-26T06:37:29;94724.66;;;5.85;91.48
62103;BME280;48077;48.104;11.702;2023-03-26T06:39:53;94701.94;;;5.78;91.62
62103;BME280;48077;48.104;11.702;2023-03-26T06:42:16;94717.31;;;5.87;91.46
62103;BME280;48077;48.104;11.702;2023-03-26T06:44:39;94702.81;;;5.90;90.98
62103;BME280;48077;48.104;11.702;2023-03-26T06:47:03;94706.38;;;6.02;90.82
62103;BME280;48077;48.104;11.702;2023-03-26T06:49:26;94688.84;;;6.01;90.76
62103;BME280;48077;48.104;11.702;2023-03-26T06:51:49;94684.16;;;6.03;90.29
62103;BME280;48077;48.104;11.702;2023-03-26T06:54:13;94705.38;;;6.15;90.24
62103;BME280;48077;48.104;11.702;2023-03-26T06:56:36;94689.59;;;6.08;90.24
62103;BME280;48077;48.104;11.702;2023-03-26T06:58:59;94696.97;;;6.18;90.07
62103;BME280;48077;48.104;11.702;2023-03-26T07:01:23;94687.66;;;6.16;90.54
62103;BME280;48077;48.104;11.702;2023-03-26T07:03:46;94701.75;;;6.28;90.21
62103;BME280;48077;48.104;11.702;2023-03-26T07:06:10;94701.28;;;6.31;90.52
62103;BME280;48077;48.104;11.702;2023-03-26T07:08:33;94691.53;;;6.32;89.59
62103;BME280;48077;48.104;11.702;2023-03-26T07:10:56;94671.44;;;6.24;88.46
62103;BME280;48077;48.104;11.702;2023-03-26T07:13:20;94676.44;;;6.32;87.86
62103;BME280;48077;48.104;11.702;2023-03-26T07:15:43;94692.13;;;6.45;88.13
62103;BME280;48077;48.104;11.702;2023-03-26T07:18:06;94684.63;;;6.42;88.38
62103;BME280;48077;48.104;11.702;2023-03-26T07:20:30;94683.38;;;6.45;88.77
62103;BME280;48077;48.104;11.702;2023-03-26T07:22:54;94680.13;;;6.43;89.68
62103;BME280;48077;48.104;11.702;2023-03-26T07:25:17;94680.13;;;6.43;91.16
62103;BME280;48077;48.104;11.702;2023-03-26T07:28:10;94680.50;;;6.46;93.09
62103;BME280;48077;48.104;11.702;2023-03-26T07:36:42;94643.16;;;6.36;95.64
62103;BME280;48077;48.104;11.702;2023-03-26T07:42:25;94627.50;;;6.35;99.02
62103;BME280;48077;48.104;11.702;2023-03-26T07:45:02;94607.56;;;6.32;100.00
62103;BME280;48077;48.104;11.702;2023-03-26T07:47:32;94597.19;;;6.31;100.00
62103;BME280;48077;48.104;11.702;2023-03-26T07:49:57;94587.28;;;6.26;100.00
62103;BME280;48077;48.104;11.702;2023-03-26T07:52:20;94564.59;;;6.06;100.00
62103;BME280;48077;48.104;11.702;2023-03-26T07:54:44;94593.28;;;6.21;100.00
62103;BME280;48077;48.104;11.702;2023-03-26T07:57:17;94563.44;;;6.02;100.00
62103;BME280;48077;48.104;11.702;2023-03-26T08:07:59;94559.19;;;6.25;100.00
62103;BME280;48077;48.104;11.702;2023-03-26T08:10:26;94572.22;;;6.38;100.00
62103;BME280;48077;48.104;11.702;2023-03-26T08:13:27;94534.09;;;6.27;100.00
62103;BME280;48077;48.104;11.702;2023-03-26T08:18:55;94546.56;;;6.51;100.00
62103;BME280;48077;48.104;11.702;2023-03-26T08:21:44;94539.28;;;6.58;100.00
62103;BME280;48077;48.104;11.702;2023-03-26T08:24:42;94529.16;;;6.66;100.00
62103;BME280;48077;48.104;11.702;2023-03-26T08:27:24;94519.81;;;6.64;100.00
62103;BME280;48077;48.104;11.702;2023-03-26T08:30:08;94523.84;;;6.66;100.00
62103;BME280;48077;48.104;11.702;2023-03-26T08:32:35;94507.41;;;6.53;100.00
62103;BME280;48077;48.104;11.702;2023-03-26T08:34:59;94514.16;;;6.60;100.00
62103;BME280;48077;48.104;11.702;2023-03-26T08:37:23;94525.69;;;6.66;100.00
62103;BME280;48077;48.104;11.702;2023-03-26T08:39:46;94523.41;;;6.69;100.00
62103;BME280;48077;48.104;11.702;2023-03-26T08:55:56;94519.19;;;7.09;100.00
62103;BME280;48077;48.104;11.702;2023-03-26T09:12:20;94515.22;;;7.23;96.80
62103;BME280;48077;48.104;11.702;2023-03-26T09:26:22;94500.84;;;7.07;95.43
62103;BME280;48077;48.104;11.702;2023-03-26T09:29:11;94495.69;;;7.01;93.72
62103;BME280;48077;48.104;11.702;2023-03-26T09:31:51;94481.84;;;6.99;93.86
62103;BME280;48077;48.104;11.702;2023-03-26T09:34:31;94476.06;;;7.02;93.87
62103;BME280;48077;48.104;11.702;2023-03-26T09:37:12;94476.66;;;7.04;94.56
62103;BME280;48077;48.104;11.702;2023-03-26T09:43:23;94464.91;;;7.00;95.92
62103;BME280;48077;48.104;11.702;2023-03-26T09:46:02;94467.91;;;6.92;97.30
62103;BME280;48077;48.104;11.702;2023-03-26T09:48:39;94475.63;;;6.93;98.63
62103;BME280;48077;48.104;11.702;2023-03-26T09:59:22;94440.75;;;6.84;100.00
62103;BME280;48077;48.104;11.702;2023-03-26T10:10:30;94444.91;;;6.68;100.00
62103;BME280;48077;48.104;11.702;2023-03-26T10:18:51;94446.47;;;6.93;100.00
62103;BME280;48077;48.104;11.702;2023-03-26T10:32:00;94448.56;;;6.91;100.00
62103;BME280;48077;48.104;11.702;2023-03-26T10:37:20;94440.53;;;6.86;100.00
62103;BME280;48077;48.104;11.702;2023-03-26T10:43:03;94440.88;;;6.78;100.00
62103;BME280;48077;48.104;11.702;2023-03-26T10:50:45;94476.25;;;6.83;100.00
62103;BME280;48077;48.104;11.702;2023-03-26T10:55:50;94479.84;;;6.77;100.00
62103;BME280;48077;48.104;11.702;2023-03-26T10:58:23;94470.50;;;6.75;100.00
62103;BME280;48077;48.104;11.702;2023-03-26T11:01:02;94466.81;;;6.76;100.00
62103;BME280;48077;48.104;11.702;2023-03-26T11:12:00;94437.88;;;6.74;100.00
62103;BME280;48077;48.104;11.702;2023-03-26T11:14:28;94437.53;;;6.71;100.00
62103;BME280;48077;48.104;11.702;2023-03-26T11:19:52;94428.09;;;6.75;100.00
62103;BME280;48077;48.104;11.702;2023-03-26T11:22:37;94407.38;;;6.72;100.00
62103;BME280;48077;48.104;11.702;2023-03-26T11:25:28;94430.28;;;6.78;100.00
62103;BME280;48077;48.104;11.702;2023-03-26T11:30:40;94428.78;;;6.70;100.00
62103;BME280;48077;48.104;11.702;2023-03-26T11:33:12;94409.59;;;6.63;100.00
62103;BME280;48077;48.104;11.702;2023-03-26T11:35:45;94414.97;;;6.80;100.00
62103;BME280;48077;48.104;11.702;2023-03-26T11:38:46;94417.56;;;6.92;100.00
62103;BME280;48077;48.104;11.702;2023-03-26T11:41:30;94405.84;;;6.87;100.00
62103;BME280;48077;48.104;11.702;2023-03-26T11:43:56;94430.91;;;6.97;100.00
62103;BME280;48077;48.104;11.702;2023-03-26T11:46:23;94425.28;;;6.93;100.00
62103;BME280;48077;48.104;11.702;2023-03-26T11:48:54;94396.34;;;6.63;100.00
62103;BME280;48077;48.104;11.702;2023-03-26T11:51:34;94420.47;;;6.78;100.00
62103;BME280;48077;48.104;11.702;2023-03-26T11:53:59;94423.41;;;6.65;100.00
62103;BME280;48077;48.104;11.702;2023-03-26T11:56:57;94431.09;;;6.66;100.00
62103;BME280;48077;48.104;11.702;2023-03-26T11:59:28;94408.13;;;6.43;100.00
62103;BME280;48077;48.104;11.702;2023-03-26T12:01:57;94430.44;;;6.47;100.00
62103;BME280;48077;48.104;11.702;2023-03-26T12:04:27;94426.78;;;6.48;100.00
62103;BME280;48077;48.104;11.702;2023-03-26T12:07:05;94418.63;;;6.38;100.00
62103;BME280;48077;48.104;11.702;2023-03-26T12:09:29;94420.09;;;6.46;100.00
62103;BME280;48077;48.104;11.702;2023-03-26T12:11:58;94410.19;;;6.53;100.00
62103;BME280;48077;48.104;11.702;2023-03-26T12:14:27;94413.38;;;6.67;100.00
62103;BME280;48077;48.104;11.702;2023-03-26T12:17:12;94401.00;;;6.84;100.00
62103;BME280;48077;48.104;11.702;2023-03-26T12:19:42;94386.50;;;7.04;100.00
62103;BME280;48077;48.104;11.702;2023-03-26T12:22:32;94385.00;;;7.25;100.00
62103;BME280;48077;48.104;11.702;2023-03-26T12:25:17;94392.13;;;7.53;100.00
62103;BME280;48077;48.104;11.702;2023-03-26T12:27:56;94393.44;;;7.84;100.00
62103;BME280;48077;48.104;11.702;2023-03-26T12:30:26;94372.91;;;7.97;100.00
62103;BME280;48077;48.104;11.702;2023-03-26T12:32:50;94381.97;;;8.18;100.00
62103;BME280;48077;48.104;11.702;2023-03-26T12:35:16;94365.88;;;8.07;100.00
62103;BME280;48077;48.104;11.702;2023-03-26T12:37:44;94363.88;;;8.15;100.00
62103;BME280;48077;48.104;11.702;2023-03-26T12:40:32;94376.88;;;8.16;100.00
62103;BME280;48077;48.104;11.702;2023-03-26T12:43:02;94372.31;;;8.11;100.00
62103;BME280;48077;48.104;11.702;2023-03-26T12:45:29;94356.22;;;8.01;100.00
62103;BME280;48077;48.104;11.702;2023-03-26T12:47:57;94367.97;;;8.05;100.00
62103;BME280;48077;48.104;11.702;2023-03-26T12:50:26;94339.31;;;7.85;100.00
62103;BME280;48077;48.104;11.702;2023-03-26T12:52:59;94369.03;;;8.04;100.00
62103;BME280;48077;48.104;11.702;2023-03-26T12:55:35;94366.38;;;8.04;100.00
62103;BME280;48077;48.104;11.702;2023-03-26T12:58:21;94343.50;;;7.81;100.00
62103;BME280;48077;48.104;11.702;2023-03-26T13:01:09;94349.09;;;7.85;100.00
62103;BME280;48077;48.104;11.702;2023-03-26T13:04:01;94352.06;;;7.88;100.00
62103;BME280;48077;48.104;11.702;2023-03-26T13:06:52;94345.16;;;7.87;100.00
62103;BME280;48077;48.104;11.702;2023-03-26T13:12:07;94349.66;;;7.87;99.68
62103;BME280;48077;48.104;11.702;2023-03-26T13:14:53;94330.94;;;7.77;100.00
62103;BME280;48077;48.104;11.702;2023-03-26T13:17:38;94307.16;;;7.65;100.00
62103;BME280;48077;48.104;11.702;2023-03-26T13:25:39;94339.31;;;7.85;100.00
62103;BME280;48077;48.104;11.702;2023-03-26T13:31:09;94340.41;;;7.89;100.00
62103;BME280;48077;48.104;11.702;2023-03-26T13:33:59;94344.13;;;7.88;100.00
62103;BME280;48077;48.104;11.702;2023-03-26T13:39:20;94342.81;;;7.91;99.68
62103;BME280;48077;48.104;11.702;2023-03-26T13:42:14;94312.03;;;7.73;100.00
62103;BME280;48077;48.104;11.702;2023-03-26T13:47:47;94338.81;;;7.88;100.00
62103;BME280;48077;48.104;11.702;2023-03-26T13:50:28;94309.22;;;7.80;99.78
62103;BME280;48077;48.104;11.702;2023-03-26T13:53:23;94332.44;;;7.89;99.44
62103;BME280;48077;48.104;11.702;2023-03-26T13:55:56;94317.50;;;7.83;99.63
62103;BME280;48077;48.104;11.702;2023-03-26T14:01:26;94311.94;;;7.85;100.00
62103;BME280;48077;48.104;11.702;2023-03-26T14:14:45;94285.59;;;8.00;96.58
62103;BME280;48077;48.104;11.702;2023-03-26T14:25:03;94278.75;;;8.04;94.76
62103;BME280;48077;48.104;11.702;2023-03-26T14:27:37;94282.41;;;7.98;94.13
62103;BME280;48077;48.104;11.702;2023-03-26T14:30:05;94297.50;;;7.98;94.21
62103;BME280;48077;48.104;11.702;2023-03-26T14:33:01;94290.59;;;7.97;93.35
62103;BME280;48077;48.104;11.702;2023-03-26T14:35:45;94284.22;;;7.98;87.54
62103;BME280;48077;48.104;11.702;2023-03-26T14:38:22;94283.00;;;7.83;85.54
62103;BME280;48077;48.104;11.702;2023-03-26T14:41:11;94258.56;;;7.64;86.83
62103;BME280;48077;48.104;11.702;2023-03-26T14:43:58;94263.88;;;7.64;88.53
62103;BME280;48077;48.104;11.702;2023-03-26T14:52:02;94266.50;;;7.25;85.01
62103;BME280;48077;48.104;11.702;2023-03-26T14:54:32;94256.06;;;7.19;86.83
62103;BME280;48077;48.104;11.702;2023-03-26T14:57:17;94264.00;;;7.19;88.08
62103;BME280;48077;48.104;11.702;2023-03-26T15:11:52;94242.53;;;7.54;93.91
62103;BME280;48077;48.104;11.702;2023-03-26T15:14:39;94240.16;;;7.58;93.60
62103;BME280;48077;48.104;11.702;2023-03-26T15:45:34;94224.78;;;7.60;94.30
62103;BME280;48077;48.104;11.702;2023-03-26T15:50:46;94215.34;;;7.47;95.10
62103;BME280;48077;48.104;11.702;2023-03-26T15:56:13;94216.41;;;7.46;94.21
62103;BME280;48077;48.104;11.702;2023-03-26T16:02:01;94231.44;;;7.40;93.67
62103;BME280;48077;48.104;11.702;2023-03-26T16:05:23;94228.28;;;7.43;90.39
62103;BME280;48077;48.104;11.702;2023-03-26T16:07:58;94246.22;;;7.36;83.01
62103;BME280;48077;48.104;11.702;2023-03-26T16:13:22;94221.88;;;7.22;77.18
62103;BME280;48077;48.104;11.702;2023-03-26T16:16:10;94224.88;;;7.09;77.43
62103;BME280;48077;48.104;11.702;2023-03-26T16:19:24;94220.53;;;7.03;76.46
62103;BME280;48077;48.104;11.702;2023-03-26T16:21:38;94204.41;;;6.87;75.97
62103;BME280;48077;48.104;11.702;2023-03-26T16:29:17;94200.44;;;6.56;80.26
62103;BME280;48077;48.104;11.702;2023-03-26T16:34:56;94210.38;;;6.49;83.41
62103;BME280;48077;48.104;11.702;2023-03-26T16:54:14;94186.13;;;6.40;83.03
62103;BME280;48077;48.104;11.702;2023-03-26T16:56:47;94185.06;;;6.41;83.53
62103;BME280;48077;48.104;11.702;2023-03-26T17:02:34;94185.44;;;6.33;84.66
62103;BME280;48077;48.104;11.702;2023-03-26T17:05:18;94183.28;;;6.30;85.65
62103;BME280;48077;48.104;11.702;2023-03-26T17:07:48;94199.75;;;6.32;86.53
62103;BME280;48077;48.104;11.702;2023-03-26T17:10:28;94202.84;;;6.29;87.04
62103;BME280;48077;48.104;11.702;2023-03-26T17:13:23;94204.94;;;6.27;87.27
62103;BME280;48077;48.104;11.702;2023-03-26T17:18:33;94170.84;;;6.02;87.62
62103;BME280;48077;48.104;11.702;2023-03-26T17:21:24;94190.84;;;6.10;88.65
62103;BME280;48077;48.104;11.702;2023-03-26T17:29:47;94176.09;;;6.14;86.86
62103;BME280;48077;48.104;11.702;2023-03-26T17:32:14;94162.81;;;5.97;86.66
62103;BME280;48077;48.104;11.702;2023-03-26T17:37:03;94185.00;;;6.07;86.05
62103;BME280;48077;48.104;11.702;2023-03-26T17:42:24;94179.03;;;5.88;86.39
62103;BME280;48077;48.104;11.702;2023-03-26T17:44:52;94227.91;;;6.10;85.96
62103;BME280;48077;48.104;11.702;2023-03-26T17:47:38;94245.72;;;6.14;86.07
62103;BME280;48077;48.104;11.702;2023-03-26T17:55:15;94257.44;;;6.30;84.75